Time;durP1;ratioP1;P1;durP2;ratioP2;P2;SDS_P1;SDS_P2;PMS_P1;PMS_P2;Temp;Humidity;BMP_temperature;BMP_pressure;BME280_temperature;BME280_humidity;BME280_pressure;Samples;Min_cycle;Max_cycle;Signal;HPM_P1;HPM_P2
2022/12/21 00:03:42;;;;;;;6.67;5.87;;;8.90;99.90;;;;;;10265240;28;20662;-79
2022/12/21 00:08:47;;;;;;;7.27;6.57;;;9.00;99.90;;;;;;10299844;28;20203;-79
2022/12/21 00:13:51;;;;;;;7.40;6.80;;;9.00;99.90;;;;;;10297310;28;20559;-79
2022/12/21 00:18:53;;;;;;;7.50;6.70;;;9.00;99.90;;;;;;10291453;28;20207;-79
2022/12/21 00:23:58;;;;;;;7.70;7.00;;;9.00;99.90;;;;;;10272879;28;20288;-79
2022/12/21 00:29:02;;;;;;;7.00;6.50;;;9.10;99.90;;;;;;10290205;28;20223;-80
2022/12/21 00:34:04;;;;;;;7.80;7.30;;;9.20;99.90;;;;;;10267248;28;20244;-81
2022/12/21 00:39:09;;;;;;;11.77;10.50;;;9.20;99.90;;;;;;10293560;28;20208;-80
2022/12/21 00:44:12;;;;;;;8.50;8.00;;;9.30;99.90;;;;;;10282765;28;20224;-79
2022/12/21 00:49:14;;;;;;;8.40;7.73;;;9.30;99.90;;;;;;10271850;28;20665;-79
2022/12/21 00:54:17;;;;;;;8.53;7.80;;;9.30;99.90;;;;;;10278314;28;20303;-79
2022/12/21 00:59:20;;;;;;;9.80;9.00;;;9.30;99.90;;;;;;10291884;28;20235;-80
2022/12/21 01:04:22;;;;;;;9.33;8.73;;;9.30;99.90;;;;;;10269300;28;20681;-80
2022/12/21 01:09:24;;;;;;;9.20;8.40;;;9.20;99.90;;;;;;10293900;28;20299;-80
2022/12/21 01:14:28;;;;;;;8.93;8.33;;;9.30;99.90;;;;;;10275312;28;20263;-80
2022/12/21 01:19:30;;;;;;;8.03;7.50;;;9.30;99.90;;;;;;10288882;28;20255;-80
2022/12/21 01:24:34;;;;;;;7.90;7.30;;;9.30;99.90;;;;;;10268467;28;20223;-79
2022/12/21 01:29:38;;;;;;;7.93;7.23;;;9.30;99.90;;;;;;10288392;28;20646;-79
2022/12/21 01:34:40;;;;;;;9.00;8.30;;;9.40;99.90;;;;;;10257725;29;20229;-80
2022/12/21 01:39:42;;;;;;;9.27;8.57;;;9.40;99.90;;;;;;10261787;28;20280;-80
2022/12/21 01:45:02;;;;;;;9.47;8.77;;;9.50;99.90;;;;;;10260333;28;20225;-80
2022/12/21 01:50:19;;;;;;;8.30;7.70;;;9.50;99.90;;;;;;10289640;28;20200;-81
2022/12/21 01:55:22;;;;;;;8.63;7.90;;;9.50;99.90;;;;;;10268575;28;20233;-80
2022/12/21 02:00:26;;;;;;;8.93;8.23;;;9.50;99.90;;;;;;10288978;28;20278;-80
2022/12/21 02:05:34;;;;;;;14.83;11.53;;;9.50;99.90;;;;;;10270323;28;20212;-80
2022/12/21 02:10:36;;;;;;;9.33;8.53;;;9.50;99.90;;;;;;10273459;28;20790;-78
2022/12/21 02:15:56;;;;;;;11.30;10.40;;;9.50;99.90;;;;;;10265089;28;20227;-79
2022/12/21 02:21:32;;;;;;;11.87;10.90;;;9.60;99.90;;;;;;10248794;28;20223;-80
2022/12/21 02:26:55;;;;;;;12.50;11.70;;;9.60;99.90;;;;;;10251900;28;20663;-80
2022/12/21 02:32:06;;;;;;;12.90;12.30;;;9.60;99.90;;;;;;10216120;29;20589;-80
2022/12/21 02:37:20;;;;;;;12.57;11.97;;;9.60;99.90;;;;;;10237623;28;20217;-80
2022/12/21 02:47:59;;;;;;;12.17;11.57;;;9.70;99.90;;;;;;10289369;28;20197;-81
2022/12/21 02:53:05;;;;;;;12.97;11.87;;;9.70;99.90;;;;;;10258214;28;20315;-79
2022/12/21 02:58:16;;;;;;;12.70;11.80;;;9.70;99.90;;;;;;10273490;28;20553;-80
2022/12/21 03:03:49;;;;;;;11.50;10.80;;;9.70;99.90;;;;;;10287064;28;20235;-80
2022/12/21 03:09:06;;;;;;;12.20;11.30;;;9.80;99.90;;;;;;10276558;28;20199;-80
2022/12/21 03:14:12;;;;;;;12.60;11.73;;;9.80;99.90;;;;;;10279948;28;20571;-80
2022/12/21 03:19:25;;;;;;;13.37;12.20;;;9.80;99.90;;;;;;10280408;28;20550;-80
2022/12/21 03:24:33;;;;;;;11.63;11.03;;;9.80;99.90;;;;;;10295949;28;20235;-81
2022/12/21 03:29:50;;;;;;;12.67;11.97;;;9.90;99.90;;;;;;10286827;28;20298;-79
2022/12/21 03:34:56;;;;;;;12.73;11.90;;;9.80;99.90;;;;;;10293252;28;20200;-80
2022/12/21 03:40:01;;;;;;;14.70;13.60;;;9.80;99.90;;;;;;10270550;28;20212;-80
2022/12/21 03:45:07;;;;;;;13.63;12.67;;;9.80;99.90;;;;;;10259038;28;20224;-80
2022/12/21 03:50:16;;;;;;;14.33;13.33;;;9.70;99.90;;;;;;10293010;28;20223;-80
2022/12/21 03:55:22;;;;;;;13.30;12.60;;;9.70;99.90;;;;;;10285905;28;20200;-80
2022/12/21 04:00:25;;;;;;;13.47;12.67;;;9.70;99.90;;;;;;10291848;28;20286;-81
2022/12/21 04:05:33;;;;;;;15.20;13.70;;;9.70;99.90;;;;;;10283557;28;20251;-80
2022/12/21 04:10:37;;;;;;;11.80;10.80;;;9.70;99.90;;;;;;10294964;28;20216;-80
2022/12/21 04:21:00;;;;;;;14.07;13.17;;;9.70;99.90;;;;;;10287452;28;20246;-80
2022/12/21 04:31:20;;;;;;;15.10;13.97;;;9.70;99.90;;;;;;10234898;28;20239;-80
2022/12/21 04:41:48;;;;;;;16.90;15.90;;;9.70;99.90;;;;;;10263468;28;20226;-81
2022/12/21 04:46:50;;;;;;;17.10;15.83;;;9.80;99.90;;;;;;10264896;28;20250;-79
2022/12/21 04:51:54;;;;;;;16.20;15.20;;;9.80;99.90;;;;;;10281056;28;20267;-80
2022/12/21 04:56:56;;;;;;;14.80;13.70;;;9.80;99.90;;;;;;10278584;28;20243;-80
2022/12/21 05:01:58;;;;;;;12.13;11.20;;;9.80;99.90;;;;;;10280106;28;20220;-81
2022/12/21 05:07:01;;;;;;;17.53;15.97;;;9.90;99.90;;;;;;10298708;28;20279;-80
2022/12/21 05:12:04;;;;;;;15.50;14.70;;;9.90;99.90;;;;;;10298792;28;20235;-80
2022/12/21 05:17:06;;;;;;;15.80;14.90;;;10.00;99.90;;;;;;10277375;28;20228;-80
2022/12/21 05:22:09;;;;;;;14.03;13.13;;;10.00;99.90;;;;;;10280254;28;20720;-81
2022/12/21 05:27:12;;;;;;;13.67;12.50;;;9.90;99.90;;;;;;10276590;28;20220;-80
2022/12/21 05:32:14;;;;;;;13.23;12.47;;;10.00;99.90;;;;;;10282665;28;20219;-80
2022/12/21 05:37:17;;;;;;;14.57;13.43;;;10.00;99.90;;;;;;10279348;28;20200;-80
2022/12/21 05:42:20;;;;;;;13.60;12.53;;;9.90;99.90;;;;;;10293731;28;20216;-80
2022/12/21 05:47:22;;;;;;;15.47;13.97;;;10.00;99.90;;;;;;10277426;28;20220;-79
2022/12/21 05:52:25;;;;;;;15.23;14.53;;;9.90;99.90;;;;;;10287594;28;20217;-80
2022/12/21 05:57:27;;;;;;;13.43;12.63;;;10.00;99.90;;;;;;10282071;28;20606;-80
2022/12/21 06:02:29;;;;;;;12.17;11.50;;;10.00;99.90;;;;;;10280519;28;20311;-80
2022/12/21 06:07:33;;;;;;;14.33;13.10;;;10.00;99.90;;;;;;10275557;28;20283;-80
2022/12/21 06:12:35;;;;;;;10.50;9.80;;;9.90;99.90;;;;;;10265979;28;20236;-80
2022/12/21 06:17:37;;;;;;;14.23;13.53;;;10.00;99.90;;;;;;10276001;28;20231;-81
2022/12/21 06:22:41;;;;;;;11.20;10.40;;;10.00;99.90;;;;;;10280094;28;20216;-80
2022/12/21 06:27:45;;;;;;;15.27;14.57;;;10.00;99.90;;;;;;10259996;28;20235;-80
2022/12/21 06:32:47;;;;;;;12.23;11.17;;;10.00;99.90;;;;;;10269441;28;20283;-80
2022/12/21 06:37:54;;;;;;;16.80;15.80;;;10.10;99.90;;;;;;10277301;28;20209;-80
2022/12/21 06:42:56;;;;;;;14.20;13.20;;;10.10;99.90;;;;;;10260226;28;20572;-80
2022/12/21 06:47:58;;;;;;;17.03;15.90;;;10.10;99.90;;;;;;10238512;29;20292;-79
2022/12/21 06:53:02;;;;;;;13.70;12.73;;;10.10;99.90;;;;;;10267888;28;20223;-80
2022/12/21 06:58:04;;;;;;;10.10;9.57;;;10.10;99.90;;;;;;10281442;28;20243;-80
2022/12/21 07:03:06;;;;;;;10.63;10.03;;;10.10;99.90;;;;;;10269423;28;20247;-80
2022/12/21 07:08:09;;;;;;;11.47;10.97;;;10.10;99.90;;;;;;10270388;28;20227;-79
2022/12/21 07:13:12;;;;;;;14.80;13.80;;;10.20;99.90;;;;;;10272640;28;20355;-80
2022/12/21 07:18:14;;;;;;;13.33;12.43;;;10.10;99.90;;;;;;10226540;29;20205;-80
2022/12/21 07:23:17;;;;;;;15.03;13.87;;;10.10;99.90;;;;;;10266709;28;20262;-80
2022/12/21 07:28:22;;;;;;;15.13;14.23;;;10.10;99.90;;;;;;10286035;28;20200;-79
2022/12/21 07:33:26;;;;;;;15.80;14.80;;;10.20;99.90;;;;;;10260782;28;20213;-79
2022/12/21 07:38:31;;;;;;;11.43;10.73;;;10.20;99.90;;;;;;10266392;28;20220;-79
2022/12/21 07:43:37;;;;;;;10.37;9.70;;;10.30;99.90;;;;;;10286464;28;20224;-79
2022/12/21 07:48:43;;;;;;;9.40;8.80;;;10.30;99.90;;;;;;10272421;28;20201;-80
2022/12/21 07:53:47;;;;;;;14.63;13.73;;;10.20;99.90;;;;;;10272463;28;20219;-80
2022/12/21 07:58:49;;;;;;;11.77;11.17;;;10.20;99.90;;;;;;10277758;28;20196;-80
2022/12/21 08:03:51;;;;;;;10.47;9.97;;;10.20;99.90;;;;;;10290758;28;20493;-80
2022/12/21 08:08:55;;;;;;;10.20;9.60;;;10.30;99.90;;;;;;10290508;28;20196;-80
2022/12/21 08:13:58;;;;;;;12.57;11.63;;;10.30;99.90;;;;;;10305953;28;20244;-81
2022/12/21 08:19:00;;;;;;;12.70;12.00;;;10.30;99.90;;;;;;10294703;28;20262;-79
2022/12/21 08:24:03;;;;;;;9.40;8.80;;;10.30;99.90;;;;;;10294665;28;20282;-80
2022/12/21 08:29:06;;;;;;;14.40;13.40;;;10.30;99.90;;;;;;10266303;28;20234;-80
2022/12/21 08:34:08;;;;;;;13.57;12.87;;;10.30;99.90;;;;;;10285810;28;20207;-79
2022/12/21 08:39:11;;;;;;;14.17;13.17;;;10.30;99.90;;;;;;10295609;28;20193;-79
2022/12/21 08:44:13;;;;;;;11.73;11.07;;;10.30;99.90;;;;;;10290446;28;20227;-80
2022/12/21 08:49:16;;;;;;;14.07;13.07;;;10.30;99.90;;;;;;10293387;28;20208;-80
2022/12/21 08:54:19;;;;;;;13.57;12.77;;;10.30;99.90;;;;;;10284263;28;20228;-80
2022/12/21 08:59:21;;;;;;;14.40;13.50;;;10.30;99.90;;;;;;10274441;28;20657;-80
2022/12/21 09:04:23;;;;;;;10.17;9.57;;;10.30;99.90;;;;;;10289417;28;20252;-79
2022/12/21 09:09:27;;;;;;;11.83;11.23;;;10.20;99.90;;;;;;10293418;28;20291;-80
2022/12/21 09:14:30;;;;;;;14.30;13.50;;;10.30;99.90;;;;;;10247485;28;20294;-80
2022/12/21 09:19:32;;;;;;;11.03;10.40;;;10.30;99.90;;;;;;10290723;28;20205;-80
2022/12/21 09:24:35;;;;;;;13.40;12.63;;;10.30;99.90;;;;;;10262353;28;20653;-80
2022/12/21 09:29:38;;;;;;;12.53;11.83;;;10.30;99.90;;;;;;10274884;28;20426;-80
2022/12/21 09:34:40;;;;;;;14.50;13.80;;;10.30;99.90;;;;;;10294365;28;20219;-80
2022/12/21 09:39:43;;;;;;;12.57;11.77;;;10.30;99.90;;;;;;10284928;28;20276;-79
2022/12/21 09:45:00;;;;;;;11.20;10.60;;;10.30;99.90;;;;;;10280297;28;20224;-79
2022/12/21 09:50:06;;;;;;;13.87;13.00;;;10.20;99.90;;;;;;10231022;28;20219;-80
2022/12/21 09:55:16;;;;;;;13.20;12.50;;;10.30;99.90;;;;;;10291196;28;20688;-80
2022/12/21 10:00:20;;;;;;;14.10;13.23;;;10.30;99.90;;;;;;10281473;28;20579;-79
2022/12/21 10:05:40;;;;;;;14.07;13.37;;;10.30;99.90;;;;;;10262236;28;20240;-80
2022/12/21 10:10:51;;;;;;;11.10;10.50;;;10.30;99.90;;;;;;10285093;28;20252;-80
2022/12/21 10:16:08;;;;;;;14.70;13.87;;;10.30;99.90;;;;;;10233651;28;20623;-80
2022/12/21 10:21:19;;;;;;;12.90;12.30;;;10.40;99.90;;;;;;10270623;28;20207;-78
2022/12/21 10:26:27;;;;;;;8.53;8.13;;;10.50;99.90;;;;;;10290888;28;20253;-79
2022/12/21 10:31:37;;;;;;;10.33;9.73;;;10.50;99.90;;;;;;10282281;28;20232;-80
2022/12/21 10:36:40;;;;;;;8.10;7.60;;;10.50;99.90;;;;;;10273103;28;20222;-79
2022/12/21 10:41:47;;;;;;;12.77;11.87;;;10.50;99.90;;;;;;10281299;28;20220;-79
2022/12/21 10:46:49;;;;;;;11.73;11.13;;;10.60;99.90;;;;;;10243012;28;20607;-80
2022/12/21 10:51:51;;;;;;;10.57;9.87;;;10.70;99.90;;;;;;10269483;28;20227;-80
2022/12/21 10:56:58;;;;;;;12.37;11.67;;;10.70;99.90;;;;;;10281720;28;20200;-81
2022/12/21 11:02:07;;;;;;;11.00;10.10;;;10.90;99.90;;;;;;10266778;28;20262;-79
2022/12/21 11:07:25;;;;;;;9.60;9.00;;;10.90;99.90;;;;;;10284598;28;20222;-80
2022/12/21 11:12:29;;;;;;;10.30;9.53;;;10.90;99.90;;;;;;10264685;28;20271;-80
2022/12/21 11:17:33;;;;;;;10.80;10.10;;;10.90;99.90;;;;;;10269500;28;20266;-79
2022/12/21 11:22:40;;;;;;;8.60;8.20;;;10.80;99.90;;;;;;10284948;28;20610;-80
2022/12/21 11:27:45;;;;;;;9.50;8.90;;;10.90;99.90;;;;;;10249291;29;20192;-80
2022/12/21 11:32:49;;;;;;;8.67;8.27;;;10.90;99.90;;;;;;10267182;28;20295;-80
2022/12/21 11:37:54;;;;;;;9.57;9.07;;;10.90;99.90;;;;;;10280357;28;20200;-79
2022/12/21 11:43:07;;;;;;;7.73;7.23;;;10.90;99.90;;;;;;10277970;28;20212;-79
2022/12/21 11:48:21;;;;;;;8.17;7.47;;;10.80;99.90;;;;;;10280856;28;20204;-80
2022/12/21 11:53:55;;;;;;;9.80;9.20;;;10.80;99.90;;;;;;10264728;28;20219;-80
2022/12/21 11:59:23;;;;;;;8.97;8.57;;;10.80;99.90;;;;;;10283849;28;20222;-80
2022/12/21 12:04:40;;;;;;;9.23;8.60;;;10.90;99.90;;;;;;10290836;28;20220;-78
2022/12/21 12:09:58;;;;;;;8.23;7.57;;;11.00;99.90;;;;;;10294986;28;20211;-79
2022/12/21 12:15:25;;;;;;;8.60;8.10;;;11.20;99.90;;;;;;10274754;28;20212;-79
2022/12/21 12:21:00;;;;;;;6.77;6.37;;;11.10;99.90;;;;;;10258188;28;20217;-80
2022/12/21 12:26:15;;;;;;;5.83;5.53;;;11.30;99.90;;;;;;10314753;28;20291;-78
2022/12/21 12:31:34;;;;;;;6.47;6.17;;;11.20;99.90;;;;;;10265265;28;20227;-80
2022/12/21 12:36:47;;;;;;;16.10;14.70;;;11.20;99.90;;;;;;10296615;28;20724;-80
2022/12/21 12:41:55;;;;;;;7.17;6.63;;;11.30;99.90;;;;;;10264885;28;20221;-78
2022/12/21 12:47:07;;;;;;;7.07;6.67;;;11.50;99.90;;;;;;10286617;28;20276;-79
2022/12/21 12:52:22;;;;;;;6.77;6.40;;;11.40;99.90;;;;;;10223122;29;20231;-80
2022/12/21 12:57:31;;;;;;;6.70;6.40;;;11.40;99.90;;;;;;10268969;28;20212;-80
2022/12/21 13:02:44;;;;;;;5.87;5.47;;;11.30;99.90;;;;;;10319138;23;20259;-83
2022/12/21 13:07:52;;;;;;;5.50;5.20;;;11.20;99.90;;;;;;10326240;28;20199;-81
2022/12/21 13:13:01;;;;;;;6.33;6.00;;;11.30;99.90;;;;;;10300533;28;20623;-81
2022/12/21 13:18:12;;;;;;;6.07;5.77;;;11.40;99.90;;;;;;10306293;28;20192;-81
2022/12/21 13:23:19;;;;;;;5.37;5.00;;;11.40;99.90;;;;;;10273922;28;20315;-81
2022/12/21 13:28:27;;;;;;;4.50;4.20;;;11.50;99.90;;;;;;10290324;28;20239;-81
2022/12/21 13:33:36;;;;;;;4.57;4.37;;;11.60;99.90;;;;;;10287197;28;20219;-80
2022/12/21 13:38:41;;;;;;;4.37;3.97;;;11.60;99.90;;;;;;10263319;28;20788;-80
2022/12/21 13:43:49;;;;;;;5.10;4.80;;;11.70;99.90;;;;;;10251305;28;20235;-79
2022/12/21 13:49:00;;;;;;;3.23;3.00;;;11.70;99.90;;;;;;10292382;28;20288;-80
2022/12/21 13:54:13;;;;;;;5.07;4.70;;;11.70;99.90;;;;;;10276205;28;20208;-80
2022/12/21 13:59:23;;;;;;;3.40;3.20;;;11.70;99.90;;;;;;10293138;28;20200;-80
2022/12/21 14:04:38;;;;;;;3.93;3.63;;;11.70;99.90;;;;;;10292994;28;20249;-78
2022/12/21 14:09:55;;;;;;;2.83;2.70;;;11.70;99.90;;;;;;10274729;28;20290;-78
2022/12/21 14:15:21;;;;;;;5.00;4.03;;;11.60;99.90;;;;;;10284056;28;20216;-80
2022/12/21 14:20:28;;;;;;;3.70;3.37;;;11.50;99.90;;;;;;10273940;28;20215;-79
2022/12/21 14:25:36;;;;;;;7.10;4.80;;;11.50;99.90;;;;;;10274443;28;20220;-79
2022/12/21 14:30:38;;;;;;;4.93;3.50;;;11.40;99.90;;;;;;10293115;28;20556;-79
2022/12/21 14:35:43;;;;;;;6.33;4.40;;;11.40;99.90;;;;;;10274528;28;20658;-79
2022/12/21 14:41:00;;;;;;;4.33;4.07;;;11.30;99.90;;;;;;10275920;28;20251;-80
2022/12/21 14:46:27;;;;;;;5.13;4.73;;;11.20;99.90;;;;;;10276924;28;20223;-80
2022/12/21 14:51:52;;;;;;;7.10;6.50;;;11.10;99.90;;;;;;10271928;28;20258;-80
2022/12/21 14:57:17;;;;;;;5.63;5.13;;;11.00;99.90;;;;;;10297331;28;20268;-81
2022/12/21 15:02:25;;;;;;;21.33;18.40;;;10.80;99.90;;;;;;10298408;28;20223;-81
2022/12/21 15:07:39;;;;;;;26.10;22.57;;;10.70;99.90;;;;;;10297602;28;20404;-81
2022/12/21 15:12:43;;;;;;;9.47;8.60;;;10.60;99.90;;;;;;10294509;28;20216;-81
2022/12/21 15:17:45;;;;;;;10.37;9.40;;;10.50;99.90;;;;;;10248124;28;20222;-79
2022/12/21 15:22:52;;;;;;;8.50;7.80;;;10.40;99.90;;;;;;10278294;28;20219;-79
2022/12/21 15:27:57;;;;;;;8.87;7.27;;;10.40;99.90;;;;;;10277834;28;20230;-79
2022/12/21 15:33:06;;;;;;;9.57;8.77;;;10.30;99.90;;;;;;10262227;28;20216;-79
2022/12/21 15:38:17;;;;;;;10.63;9.57;;;10.20;99.90;;;;;;10278348;28;20226;-79
2022/12/21 15:43:23;;;;;;;9.70;8.80;;;10.20;99.90;;;;;;10267350;28;20224;-79
2022/12/21 15:48:30;;;;;;;6.73;6.13;;;10.30;99.90;;;;;;10283302;28;20206;-79
2022/12/21 15:53:34;;;;;;;5.57;5.10;;;10.30;99.90;;;;;;10296192;28;20212;-79
2022/12/21 15:58:36;;;;;;;4.60;4.30;;;10.50;99.90;;;;;;10280712;28;20234;-80
2022/12/21 16:03:41;;;;;;;5.40;4.97;;;10.70;99.90;;;;;;10298662;28;20238;-80
2022/12/21 16:08:47;;;;;;;4.73;4.33;;;10.70;99.90;;;;;;10297193;28;20200;-80
2022/12/21 16:13:49;;;;;;;5.40;5.00;;;10.80;99.90;;;;;;10266552;28;20297;-79
2022/12/21 16:18:56;;;;;;;9.27;8.47;;;10.80;99.90;;;;;;10277327;28;20275;-79
2022/12/21 16:24:05;;;;;;;9.43;8.43;;;10.70;99.90;;;;;;10279236;28;20224;-79
2022/12/21 16:29:16;;;;;;;10.30;9.30;;;10.70;99.90;;;;;;10295915;28;20226;-81
2022/12/21 16:34:28;;;;;;;8.60;7.70;;;10.70;99.90;;;;;;10305935;28;20700;-81
2022/12/21 16:39:32;;;;;;;7.97;7.23;;;10.60;99.90;;;;;;10272350;28;20283;-81
2022/12/21 16:44:37;;;;;;;12.23;10.97;;;10.60;99.90;;;;;;10250740;28;20217;-81
2022/12/21 16:49:41;;;;;;;14.37;12.87;;;10.60;99.90;;;;;;10304910;28;20202;-80
2022/12/21 16:54:45;;;;;;;10.53;9.53;;;10.50;99.90;;;;;;10305549;28;20219;-81
2022/12/21 16:59:49;;;;;;;11.17;10.10;;;10.50;99.90;;;;;;10288199;28;20223;-80
2022/12/21 17:04:51;;;;;;;6.57;5.97;;;10.50;99.90;;;;;;10272137;28;20220;-81
2022/12/21 17:09:58;;;;;;;5.27;4.87;;;10.60;99.90;;;;;;10272312;28;20196;-81
2022/12/21 17:15:00;;;;;;;6.30;5.80;;;10.60;99.90;;;;;;10264053;29;20255;-83
2022/12/21 17:20:16;;;;;;;4.17;3.83;;;10.70;99.90;;;;;;10290237;28;20232;-83
2022/12/21 17:25:19;;;;;;;5.10;4.60;;;10.60;99.90;;;;;;10304394;28;20223;-82
2022/12/21 17:30:23;;;;;;;4.30;4.00;;;10.70;99.90;;;;;;10268438;28;20204;-81
2022/12/21 17:35:25;;;;;;;4.60;4.30;;;10.60;99.90;;;;;;10276483;28;20292;-82
2022/12/21 17:40:29;;;;;;;13.83;11.97;;;10.60;99.90;;;;;;10298158;28;20711;-83
2022/12/21 17:45:34;;;;;;;7.20;6.67;;;10.60;99.90;;;;;;10294463;28;20229;-83
2022/12/21 17:50:40;;;;;;;4.30;3.93;;;10.60;99.90;;;;;;10280589;28;20203;-83
2022/12/21 17:55:43;;;;;;;5.30;4.80;;;10.60;99.90;;;;;;10297071;28;20306;-83
2022/12/21 18:00:48;;;;;;;5.40;4.93;;;10.60;99.90;;;;;;10260797;28;20332;-82
2022/12/21 18:05:51;;;;;;;4.60;4.20;;;10.70;99.90;;;;;;10275256;28;20236;-81
2022/12/21 18:10:54;;;;;;;4.70;3.90;;;10.70;99.90;;;;;;10276770;28;20203;-82
2022/12/21 18:16:00;;;;;;;4.60;4.20;;;10.70;99.90;;;;;;10289974;28;20754;-82
2022/12/21 18:21:02;;;;;;;8.07;7.10;;;10.70;99.90;;;;;;10280498;28;20597;-81
2022/12/21 18:26:07;;;;;;;8.17;7.47;;;10.70;99.90;;;;;;10300088;28;20223;-80
2022/12/21 18:31:13;;;;;;;4.30;4.00;;;10.70;99.90;;;;;;10279364;28;20200;-81
2022/12/21 18:36:18;;;;;;;4.83;4.27;;;10.70;99.90;;;;;;10279486;28;20199;-82
2022/12/21 18:41:23;;;;;;;7.23;6.17;;;10.70;99.90;;;;;;10259244;28;20199;-82
2022/12/21 18:46:28;;;;;;;4.63;4.30;;;10.70;99.90;;;;;;10285071;28;20215;-82
2022/12/21 18:51:32;;;;;;;4.60;4.13;;;10.70;99.90;;;;;;10259197;28;20215;-82
2022/12/21 18:56:36;;;;;;;5.57;5.07;;;10.80;99.90;;;;;;10279315;28;20575;-81
2022/12/21 19:01:38;;;;;;;4.00;3.70;;;10.70;99.90;;;;;;10307601;23;20676;-79
2022/12/21 19:06:40;;;;;;;4.67;4.37;;;10.70;99.90;;;;;;10335069;28;20223;-81
2022/12/21 19:11:44;;;;;;;4.67;4.27;;;10.70;99.90;;;;;;10340469;28;20263;-80
2022/12/21 19:16:47;;;;;;;6.27;5.67;;;10.70;99.90;;;;;;10326136;28;20192;-81
2022/12/21 19:21:52;;;;;;;5.40;5.00;;;10.70;99.90;;;;;;10309009;28;20203;-81
2022/12/21 19:26:55;;;;;;;4.30;4.00;;;10.70;99.90;;;;;;10322502;28;20227;-81
2022/12/21 19:31:58;;;;;;;4.57;4.17;;;10.70;99.90;;;;;;10310849;28;20247;-81
2022/12/21 19:37:03;;;;;;;4.50;4.10;;;10.70;99.90;;;;;;10328174;28;20192;-80
2022/12/21 19:42:11;;;;;;;3.97;3.77;;;10.70;99.90;;;;;;10317721;28;20211;-81
2022/12/21 19:47:16;;;;;;;3.43;3.10;;;10.70;99.90;;;;;;10304434;28;20216;-80
2022/12/21 19:52:18;;;;;;;3.90;3.60;;;10.70;99.90;;;;;;10330450;28;20219;-81
2022/12/21 19:57:33;;;;;;;4.33;3.93;;;10.70;99.90;;;;;;10330423;28;20276;-81
2022/12/21 20:02:36;;;;;;;3.83;3.40;;;10.70;99.90;;;;;;10317445;28;20219;-81
2022/12/21 20:07:38;;;;;;;4.10;3.80;;;10.80;99.90;;;;;;10325744;28;20279;-81
2022/12/21 20:12:41;;;;;;;3.90;3.60;;;10.70;99.90;;;;;;10315554;28;20223;-80
2022/12/21 20:17:43;;;;;;;4.07;3.83;;;10.80;99.90;;;;;;10325625;28;20278;-80
2022/12/21 20:22:48;;;;;;;3.70;3.50;;;10.80;99.90;;;;;;10316207;28;20727;-80
2022/12/21 20:27:53;;;;;;;3.70;3.50;;;10.80;99.90;;;;;;10306233;28;20315;-81
2022/12/21 20:32:58;;;;;;;3.37;3.10;;;10.90;99.90;;;;;;10303213;28;20307;-80
2022/12/21 20:38:11;;;;;;;3.90;3.60;;;10.90;99.90;;;;;;10327124;28;20196;-80
2022/12/21 20:48:35;;;;;;;3.03;2.90;;;10.90;99.90;;;;;;10299710;28;20274;-81
2022/12/21 20:53:37;;;;;;;3.20;2.90;;;10.90;99.90;;;;;;10325956;28;20309;-80
2022/12/21 20:58:41;;;;;;;2.73;2.63;;;10.90;99.90;;;;;;10332215;28;20196;-81
2022/12/21 21:03:44;;;;;;;3.40;3.10;;;10.90;99.90;;;;;;10310431;28;20227;-80
2022/12/21 21:08:47;;;;;;;5.43;4.23;;;11.00;99.90;;;;;;10326105;28;20230;-81
2022/12/21 21:13:50;;;;;;;2.90;2.70;;;11.00;99.90;;;;;;10311864;28;20246;-80
2022/12/21 21:18:53;;;;;;;3.37;3.10;;;11.10;99.90;;;;;;10309283;28;20287;-81
2022/12/21 21:23:55;;;;;;;3.27;2.97;;;11.10;99.90;;;;;;10315419;28;20232;-81
2022/12/21 21:28:59;;;;;;;2.70;2.50;;;11.10;99.90;;;;;;10326251;28;20227;-80
2022/12/21 21:34:01;;;;;;;3.10;2.90;;;11.10;99.90;;;;;;10339362;28;20285;-81
2022/12/21 21:44:28;;;;;;;3.40;2.80;;;11.10;99.90;;;;;;10307970;28;20230;-81
2022/12/21 21:49:33;;;;;;;3.17;2.97;;;11.10;99.90;;;;;;10307075;28;20298;-81
2022/12/21 21:54:35;;;;;;;2.50;2.20;;;11.10;99.90;;;;;;10315903;28;20217;-80
2022/12/21 21:59:39;;;;;;;2.90;2.70;;;11.10;99.90;;;;;;10300478;28;20196;-81
2022/12/21 22:04:44;;;;;;;2.77;2.30;;;11.00;99.90;;;;;;10307773;28;20248;-81
2022/12/21 22:10:27;;;;;;;2.97;2.77;;;11.10;99.90;;;;;;10298710;28;20204;-81
2022/12/21 22:15:18;;;;;;;3.27;2.80;;;11.10;99.90;;;;;;10303147;28;20234;-81
2022/12/21 22:47:03;;;;;;;3.13;2.83;;;10.90;99.90;;;;;;10320067;28;20220;-80
2022/12/21 22:52:05;;;;;;;2.83;2.63;;;10.80;99.90;;;;;;10260574;28;20304;-80
2022/12/21 22:57:09;;;;;;;4.00;3.70;;;10.80;99.90;;;;;;10296871;28;20199;-81
2022/12/21 23:02:14;;;;;;;2.83;2.70;;;10.80;99.90;;;;;;10338461;28;20714;-80
2022/12/21 23:07:16;;;;;;;2.80;2.60;;;10.80;99.90;;;;;;10275176;28;20223;-79
2022/12/21 23:28:21;;;;;;;3.47;3.20;;;10.90;99.90;;;;;;10290273;28;20292;-79
2022/12/21 23:44:06;;;;;;;3.10;2.90;;;10.80;99.90;;;;;;10309728;28;20269;-79
